Time;durP1;ratioP1;P1;durP2;ratioP2;P2;SDS_P1;SDS_P2;PMS_P1;PMS_P2;Temp;Humidity;BMP_temperature;BMP_pressure;BME280_temperature;BME280_humidity;BME280_pressure;Samples;Min_cycle;Max_cycle;Signal;HPM_P1;HPM_P2
2023/06/25 00:00:05;;;;;;;;;;;24.30;90.80;;;;;;5075928;28;19908;-50
2023/06/25 00:02:30;;;;;;;;;;;24.30;90.80;;;;;;5094587;28;19908;-52
2023/06/25 00:04:56;;;;;;;;;;;24.30;90.80;;;;;;5094353;28;19920;-53
2023/06/25 00:07:21;;;;;;;;;;;24.30;90.80;;;;;;5094182;28;19916;-52
2023/06/25 00:09:54;;;;;;;;;;;24.30;90.80;;;;;;5094612;28;20312;-51
2023/06/25 00:12:19;;;;;;;;;;;24.30;90.80;;;;;;5094231;28;19994;-53
2023/06/25 00:14:44;;;;;;;;;;;24.30;90.90;;;;;;5094517;28;19958;-51
2023/06/25 00:17:10;;;;;;;;;;;24.30;90.90;;;;;;5094423;28;19907;-49
2023/06/25 00:19:35;;;;;;;;;;;24.30;90.90;;;;;;5094414;28;19908;-49
2023/06/25 00:22:01;;;;;;;;;;;24.30;90.90;;;;;;5094450;28;20469;-52
2023/06/25 00:24:26;;;;;;;;;;;24.30;90.90;;;;;;5094389;28;19912;-50
2023/06/25 00:26:52;;;;;;;;;;;24.30;90.90;;;;;;5094457;28;20363;-50
2023/06/25 00:29:17;;;;;;;;;;;24.30;90.90;;;;;;5094315;28;19986;-50
2023/06/25 00:31:43;;;;;;;;;;;24.30;90.90;;;;;;5094167;28;19990;-51
2023/06/25 00:34:09;;;;;;;;;;;24.30;90.90;;;;;;5094248;28;19961;-51
2023/06/25 00:36:36;;;;;;;;;;;24.30;91.00;;;;;;5094275;28;19914;-51
2023/06/25 00:39:05;;;;;;;;;;;24.30;91.00;;;;;;5093814;28;20312;-50
2023/06/25 00:41:30;;;;;;;;;;;24.30;91.00;;;;;;5094164;28;19951;-50
2023/06/25 00:43:58;;;;;;;;;;;24.30;91.00;;;;;;5094068;28;20354;-49
2023/06/25 00:46:25;;;;;;;;;;;24.30;91.00;;;;;;5093999;28;19965;-53
2023/06/25 00:48:51;;;;;;;;;;;24.30;91.00;;;;;;5094159;28;19920;-54
2023/06/25 00:51:21;;;;;;;;;;;24.30;91.00;;;;;;5093759;28;20239;-53
2023/06/25 00:53:46;;;;;;;;;;;24.30;91.00;;;;;;5093674;28;19913;-49
2023/06/25 00:56:12;;;;;;;;;;;24.30;91.00;;;;;;5093752;28;19916;-49
2023/06/25 00:58:38;;;;;;;;;;;24.30;91.00;;;;;;5093812;28;19978;-50
2023/06/25 01:01:07;;;;;;;;;;;24.20;90.90;;;;;;5094388;28;19908;-51
2023/06/25 01:03:36;;;;;;;;;;;24.30;91.00;;;;;;5093948;28;19908;-54
2023/06/25 01:06:06;;;;;;;;;;;24.20;90.90;;;;;;5093818;28;20355;-51
2023/06/25 01:08:32;;;;;;;;;;;24.20;90.90;;;;;;5093746;28;20431;-54
2023/06/25 01:10:57;;;;;;;;;;;24.20;91.00;;;;;;5076242;28;19909;-52
2023/06/25 01:13:23;;;;;;;;;;;24.20;90.90;;;;;;5097563;28;20380;-49
2023/06/25 01:15:49;;;;;;;;;;;24.20;91.00;;;;;;5098302;28;19951;-54
2023/06/25 01:18:14;;;;;;;;;;;24.20;91.00;;;;;;5079888;28;19912;-50
2023/06/25 01:20:40;;;;;;;;;;;24.20;91.00;;;;;;5097686;28;19912;-51
2023/06/25 01:23:06;;;;;;;;;;;24.20;91.00;;;;;;5098152;28;19999;-53
2023/06/25 01:25:32;;;;;;;;;;;24.20;91.00;;;;;;5097775;28;19920;-50
2023/06/25 01:27:57;;;;;;;;;;;24.20;91.00;;;;;;5097437;28;19909;-53
2023/06/25 01:30:25;;;;;;;;;;;24.20;91.00;;;;;;5097465;28;19999;-52
2023/06/25 01:32:50;;;;;;;;;;;24.20;91.00;;;;;;5097761;28;19966;-52
2023/06/25 01:35:16;;;;;;;;;;;24.20;91.30;;;;;;5097688;28;19912;-52
2023/06/25 01:37:42;;;;;;;;;;;24.20;91.00;;;;;;5097226;28;19915;-54
2023/06/25 01:40:08;;;;;;;;;;;24.20;91.00;;;;;;5097443;28;19915;-51
2023/06/25 01:42:34;;;;;;;;;;;24.20;91.10;;;;;;5097484;28;19909;-53
2023/06/25 01:44:59;;;;;;;;;;;24.20;91.10;;;;;;5097382;28;19923;-53
2023/06/25 01:47:25;;;;;;;;;;;24.20;91.10;;;;;;5096924;28;19920;-52
2023/06/25 01:49:50;;;;;;;;;;;24.20;91.10;;;;;;5097737;28;20009;-52
2023/06/25 01:52:16;;;;;;;;;;;24.20;91.10;;;;;;5097099;28;20367;-53
2023/06/25 01:54:41;;;;;;;;;;;24.20;91.10;;;;;;5097309;28;19907;-53
2023/06/25 01:57:06;;;;;;;;;;;24.20;91.10;;;;;;5097544;28;19916;-49
2023/06/25 01:59:34;;;;;;;;;;;24.20;91.10;;;;;;5079035;28;20442;-51
2023/06/25 02:02:01;;;;;;;;;;;24.20;91.20;;;;;;5097137;28;19934;-51
2023/06/25 02:04:26;;;;;;;;;;;24.20;91.20;;;;;;5097227;28;19912;-52
2023/06/25 02:06:52;;;;;;;;;;;24.20;91.20;;;;;;5096846;28;20252;-52
2023/06/25 02:09:17;;;;;;;;;;;24.20;91.20;;;;;;5096639;28;19956;-50
2023/06/25 02:11:43;;;;;;;;;;;24.20;91.20;;;;;;5096694;28;19908;-50
2023/06/25 02:14:08;;;;;;;;;;;24.20;91.20;;;;;;5096761;28;19938;-50
2023/06/25 02:16:34;;;;;;;;;;;24.20;91.20;;;;;;5096520;28;19953;-54
2023/06/25 02:18:59;;;;;;;;;;;24.20;91.20;;;;;;5096531;28;19912;-53
2023/06/25 02:21:25;;;;;;;;;;;24.20;91.50;;;;;;5096703;28;19908;-52
2023/06/25 02:23:50;;;;;;;;;;;24.20;91.30;;;;;;5096061;28;19915;-53
2023/06/25 02:26:16;;;;;;;;;;;24.20;91.30;;;;;;5096260;28;19920;-52
2023/06/25 02:28:41;;;;;;;;;;;24.10;91.30;;;;;;5096351;28;20358;-50
2023/06/25 02:31:07;;;;;;;;;;;24.20;91.30;;;;;;5096243;28;19912;-54
2023/06/25 02:33:32;;;;;;;;;;;24.20;91.30;;;;;;5096548;28;20396;-51
2023/06/25 02:35:58;;;;;;;;;;;24.20;91.30;;;;;;5096139;28;19909;-54
2023/06/25 02:38:23;;;;;;;;;;;24.20;91.30;;;;;;5078596;28;19915;-52
2023/06/25 02:40:48;;;;;;;;;;;24.20;91.40;;;;;;5096099;28;20347;-53
2023/06/25 02:43:14;;;;;;;;;;;24.20;91.40;;;;;;5096363;28;19908;-51
2023/06/25 02:45:39;;;;;;;;;;;24.10;91.30;;;;;;5096191;28;19920;-53
2023/06/25 02:48:05;;;;;;;;;;;24.20;91.40;;;;;;5096182;28;19920;-53
2023/06/25 02:50:30;;;;;;;;;;;24.10;91.30;;;;;;5078037;28;19990;-53
2023/06/25 02:52:56;;;;;;;;;;;24.10;91.30;;;;;;5096479;28;19976;-52
2023/06/25 02:55:21;;;;;;;;;;;24.10;91.30;;;;;;5095825;28;19915;-53
2023/06/25 02:57:47;;;;;;;;;;;24.10;91.30;;;;;;5095997;28;19948;-51
2023/06/25 03:00:12;;;;;;;;;;;24.10;91.40;;;;;;5077878;28;19908;-52
2023/06/25 03:02:38;;;;;;;;;;;24.10;91.40;;;;;;5095860;28;19947;-51
2023/06/25 03:05:03;;;;;;;;;;;24.10;91.40;;;;;;5095548;28;19923;-54
2023/06/25 03:07:29;;;;;;;;;;;24.10;91.40;;;;;;5095947;28;20287;-51
2023/06/25 03:09:54;;;;;;;;;;;24.10;91.40;;;;;;5095736;28;19909;-53
2023/06/25 03:12:20;;;;;;;;;;;24.10;91.40;;;;;;5096111;28;19915;-53
2023/06/25 03:14:45;;;;;;;;;;;24.10;91.50;;;;;;5095756;28;20278;-50
2023/06/25 03:17:11;;;;;;;;;;;24.10;91.50;;;;;;5095676;28;19909;-51
2023/06/25 03:19:36;;;;;;;;;;;24.10;91.50;;;;;;5095920;28;19957;-52
2023/06/25 03:22:02;;;;;;;;;;;24.10;91.50;;;;;;5095244;28;19908;-52
2023/06/25 03:24:27;;;;;;;;;;;24.10;91.50;;;;;;5095153;28;20003;-53
2023/06/25 03:26:52;;;;;;;;;;;24.10;91.60;;;;;;5095148;28;19989;-52
2023/06/25 03:29:18;;;;;;;;;;;24.10;91.60;;;;;;5095190;28;19915;-51
2023/06/25 03:31:43;;;;;;;;;;;24.10;91.60;;;;;;5077150;28;19908;-52
2023/06/25 03:34:09;;;;;;;;;;;24.10;91.70;;;;;;5094598;28;19908;-53
2023/06/25 03:36:34;;;;;;;;;;;24.10;91.70;;;;;;5094891;28;20336;-52
2023/06/25 03:39:00;;;;;;;;;;;24.10;91.70;;;;;;5095316;28;19908;-50
2023/06/25 03:41:25;;;;;;;;;;;24.10;91.70;;;;;;5095222;28;20347;-50
2023/06/25 03:43:51;;;;;;;;;;;24.10;91.70;;;;;;5095220;28;19945;-52
2023/06/25 03:46:16;;;;;;;;;;;24.10;91.70;;;;;;5094786;28;19967;-50
2023/06/25 03:48:42;;;;;;;;;;;24.10;91.70;;;;;;5094598;28;19920;-54
2023/06/25 03:51:08;;;;;;;;;;;24.20;91.70;;;;;;5094711;28;19915;-51
2023/06/25 03:53:33;;;;;;;;;;;24.20;91.70;;;;;;5094692;28;19908;-51
2023/06/25 03:55:59;;;;;;;;;;;24.20;91.70;;;;;;5094985;28;19908;-52
2023/06/25 03:58:24;;;;;;;;;;;24.20;91.60;;;;;;5076853;28;19962;-53
2023/06/25 04:00:50;;;;;;;;;;;24.20;91.60;;;;;;5076669;28;20359;-49
2023/06/25 04:03:15;;;;;;;;;;;24.20;91.60;;;;;;5094570;28;19908;-51
2023/06/25 04:05:41;;;;;;;;;;;24.20;91.60;;;;;;5094634;28;20283;-49
2023/06/25 04:08:06;;;;;;;;;;;24.20;91.60;;;;;;5094363;28;19912;-51
2023/06/25 04:10:32;;;;;;;;;;;24.20;91.60;;;;;;5094337;28;20003;-52
2023/06/25 04:12:57;;;;;;;;;;;24.20;91.60;;;;;;5094323;28;19908;-51
2023/06/25 04:15:23;;;;;;;;;;;24.20;91.60;;;;;;5094519;28;20286;-49
2023/06/25 04:17:48;;;;;;;;;;;24.20;91.60;;;;;;5094595;28;19923;-50
2023/06/25 04:20:14;;;;;;;;;;;24.20;91.60;;;;;;5094531;28;19908;-53
2023/06/25 04:22:39;;;;;;;;;;;24.20;91.60;;;;;;5094527;28;19956;-54
2023/06/25 04:25:05;;;;;;;;;;;24.20;91.60;;;;;;5094319;28;20354;-51
2023/06/25 04:27:30;;;;;;;;;;;24.20;91.60;;;;;;5094039;28;20293;-51
2023/06/25 04:29:56;;;;;;;;;;;24.20;91.60;;;;;;5094280;28;20461;-49
2023/06/25 04:32:21;;;;;;;;;;;24.30;91.60;;;;;;5094261;28;19931;-51
2023/06/25 04:34:47;;;;;;;;;;;24.20;91.60;;;;;;5094045;28;19961;-54
2023/06/25 04:37:12;;;;;;;;;;;24.30;91.60;;;;;;5094074;28;19998;-52
2023/06/25 04:39:41;;;;;;;;;;;24.30;91.60;;;;;;5093994;28;19919;-51
2023/06/25 04:42:06;;;;;;;;;;;24.30;91.60;;;;;;5075898;28;19912;-53
2023/06/25 04:44:32;;;;;;;;;;;24.30;91.50;;;;;;5094201;28;19916;-52
2023/06/25 04:46:57;;;;;;;;;;;24.30;91.50;;;;;;5093541;28;19923;-50
2023/06/25 04:49:23;;;;;;;;;;;24.20;91.50;;;;;;5094026;28;19951;-51
2023/06/25 04:51:48;;;;;;;;;;;24.30;91.50;;;;;;5075741;28;19908;-51
2023/06/25 04:54:14;;;;;;;;;;;24.30;91.50;;;;;;5076071;28;19908;-50
2023/06/25 04:56:39;;;;;;;;;;;24.30;91.50;;;;;;5094105;28;19951;-52
2023/06/25 04:59:05;;;;;;;;;;;24.30;91.50;;;;;;5094339;28;19954;-52
2023/06/25 05:01:30;;;;;;;;;;;24.30;91.50;;;;;;5093697;28;19912;-51
2023/06/25 05:03:56;;;;;;;;;;;24.30;91.50;;;;;;5094256;28;19923;-53
2023/06/25 05:06:21;;;;;;;;;;;24.30;91.40;;;;;;5075800;28;19951;-50
2023/06/25 05:08:47;;;;;;;;;;;24.30;91.40;;;;;;5093634;28;19981;-52
2023/06/25 05:11:12;;;;;;;;;;;24.30;91.40;;;;;;5093974;28;19951;-53
2023/06/25 05:13:38;;;;;;;;;;;24.30;91.40;;;;;;5076041;28;19919;-52
2023/06/25 05:16:04;;;;;;;;;;;24.30;91.40;;;;;;5093402;28;19996;-51
2023/06/25 05:18:29;;;;;;;;;;;24.30;91.40;;;;;;5075387;28;20290;-51
2023/06/25 05:20:55;;;;;;;;;;;24.30;91.40;;;;;;5093302;28;20286;-52
2023/06/25 05:23:20;;;;;;;;;;;24.30;91.40;;;;;;5094004;28;19908;-50
2023/06/25 05:25:46;;;;;;;;;;;24.30;91.40;;;;;;5093730;28;19923;-49
2023/06/25 05:28:11;;;;;;;;;;;24.30;91.40;;;;;;5093619;28;20378;-54
2023/06/25 05:30:37;;;;;;;;;;;24.30;91.40;;;;;;5075506;28;19961;-53
2023/06/25 05:33:02;;;;;;;;;;;24.30;91.40;;;;;;5093673;28;19909;-53
2023/06/25 05:35:31;;;;;;;;;;;24.30;91.40;;;;;;5092169;28;19908;-52
2023/06/25 05:37:56;;;;;;;;;;;24.30;91.40;;;;;;5100851;28;19952;-52
2023/06/25 05:40:23;;;;;;;;;;;24.30;91.40;;;;;;5093667;28;19931;-53
2023/06/25 05:42:48;;;;;;;;;;;24.30;91.40;;;;;;5092043;28;19912;-50
2023/06/25 05:45:14;;;;;;;;;;;24.30;91.40;;;;;;5093546;28;20275;-49
2023/06/25 05:47:39;;;;;;;;;;;24.30;91.40;;;;;;5094395;28;19927;-52
2023/06/25 05:50:05;;;;;;;;;;;24.30;91.40;;;;;;5084618;28;20277;-53
2023/06/25 05:52:30;;;;;;;;;;;24.30;91.40;;;;;;5104227;28;19918;-51
2023/06/25 05:54:56;;;;;;;;;;;24.30;91.40;;;;;;5095439;28;20332;-53
2023/06/25 05:57:21;;;;;;;;;;;24.30;91.40;;;;;;5105463;28;19919;-49
2023/06/25 05:59:47;;;;;;;;;;;24.30;91.40;;;;;;5116948;28;19955;-54
2023/06/25 06:02:12;;;;;;;;;;;24.30;91.40;;;;;;5115414;28;19960;-53
2023/06/25 06:04:38;;;;;;;;;;;24.30;91.40;;;;;;5115328;28;19908;-51
2023/06/25 06:07:03;;;;;;;;;;;24.30;91.50;;;;;;5115266;28;20410;-50
2023/06/25 06:09:29;;;;;;;;;;;24.30;91.40;;;;;;5115595;28;19981;-53
2023/06/25 06:11:55;;;;;;;;;;;24.30;91.50;;;;;;5114984;28;19907;-52
2023/06/25 06:14:20;;;;;;;;;;;24.30;91.40;;;;;;5115255;28;19908;-51
2023/06/25 06:16:46;;;;;;;;;;;24.30;91.40;;;;;;5117327;28;19944;-49
2023/06/25 06:19:11;;;;;;;;;;;24.30;91.30;;;;;;5108936;28;19965;-50
2023/06/25 06:21:36;;;;;;;;;;;24.30;91.30;;;;;;5096528;28;19958;-48
2023/06/25 06:24:02;;;;;;;;;;;24.30;91.30;;;;;;5096346;28;19916;-52
2023/06/25 06:26:28;;;;;;;;;;;24.30;91.40;;;;;;5094651;28;19965;-52
2023/06/25 06:28:53;;;;;;;;;;;24.30;91.40;;;;;;5096212;28;19987;-49
2023/06/25 06:31:20;;;;;;;;;;;24.30;91.20;;;;;;5096382;28;19908;-53
2023/06/25 06:33:45;;;;;;;;;;;24.30;91.30;;;;;;5096348;28;20355;-51
2023/06/25 06:36:10;;;;;;;;;;;24.30;91.00;;;;;;5097387;28;19977;-50
2023/06/25 06:38:36;;;;;;;;;;;24.30;91.00;;;;;;5116483;28;20374;-51
2023/06/25 06:41:01;;;;;;;;;;;24.30;90.90;;;;;;5116338;28;19939;-49
2023/06/25 06:43:27;;;;;;;;;;;24.30;90.90;;;;;;5114301;28;19990;-50
2023/06/25 06:45:52;;;;;;;;;;;24.30;91.20;;;;;;5116397;28;19915;-51
2023/06/25 06:48:18;;;;;;;;;;;24.30;91.20;;;;;;5116248;28;19920;-51
2023/06/25 06:50:43;;;;;;;;;;;24.30;91.30;;;;;;5099821;28;19918;-52
2023/06/25 06:53:09;;;;;;;;;;;24.30;91.40;;;;;;5096173;28;19916;-52
2023/06/25 06:55:34;;;;;;;;;;;24.30;91.60;;;;;;5077373;28;19908;-50
2023/06/25 06:58:00;;;;;;;;;;;24.30;91.40;;;;;;5095836;28;19908;-51
2023/06/25 07:00:26;;;;;;;;;;;24.30;91.50;;;;;;5095398;28;19916;-50
2023/06/25 07:02:55;;;;;;;;;;;24.30;91.50;;;;;;5116002;28;19915;-50
2023/06/25 07:05:21;;;;;;;;;;;24.30;91.40;;;;;;5116141;28;19916;-54
2023/06/25 07:07:46;;;;;;;;;;;24.30;91.20;;;;;;5105673;28;19928;-52
2023/06/25 07:10:12;;;;;;;;;;;24.30;91.20;;;;;;5092954;28;19919;-51
2023/06/25 07:12:37;;;;;;;;;;;24.30;91.30;;;;;;5094676;28;20244;-52
2023/06/25 07:15:03;;;;;;;;;;;24.30;91.10;;;;;;5098613;28;19957;-51
2023/06/25 07:17:29;;;;;;;;;;;24.30;91.30;;;;;;5115761;28;19915;-52
2023/06/25 07:19:54;;;;;;;;;;;24.30;91.30;;;;;;5111110;28;20295;-50
2023/06/25 07:22:19;;;;;;;;;;;24.30;91.30;;;;;;5095570;28;19953;-54
2023/06/25 07:24:45;;;;;;;;;;;24.30;91.60;;;;;;5095407;28;20276;-53
2023/06/25 07:27:10;;;;;;;;;;;24.30;91.40;;;;;;5077121;28;19908;-53
2023/06/25 07:29:36;;;;;;;;;;;24.30;91.40;;;;;;5094128;28;20297;-50
2023/06/25 07:32:01;;;;;;;;;;;24.30;91.30;;;;;;5075777;28;19916;-52
2023/06/25 07:34:27;;;;;;;;;;;24.30;91.10;;;;;;5084635;28;19914;-52
2023/06/25 07:36:52;;;;;;;;;;;24.20;90.50;;;;;;5095287;28;19912;-55
2023/06/25 07:39:29;;;;;;;;;;;24.20;87.70;;;;;;5095200;28;19916;-53
2023/06/25 07:41:54;;;;;;;;;;;24.20;81.60;;;;;;5094451;28;19975;-53
2023/06/25 07:44:20;;;;;;;;;;;24.10;79.90;;;;;;5094811;28;19950;-54
2023/06/25 07:46:45;;;;;;;;;;;24.10;78.80;;;;;;5094528;28;19916;-53
2023/06/25 07:49:11;;;;;;;;;;;24.10;78.90;;;;;;5076992;28;20027;-52
2023/06/25 07:51:36;;;;;;;;;;;24.10;78.80;;;;;;5090519;28;19916;-53
2023/06/25 07:54:02;;;;;;;;;;;24.10;78.70;;;;;;5094842;28;19954;-52
2023/06/25 07:56:27;;;;;;;;;;;24.10;78.50;;;;;;5093080;28;20370;-51
2023/06/25 07:58:53;;;;;;;;;;;24.10;78.30;;;;;;5095072;28;20006;-53
2023/06/25 08:01:18;;;;;;;;;;;24.10;78.30;;;;;;5095726;28;19917;-55
2023/06/25 08:03:44;;;;;;;;;;;24.00;78.40;;;;;;5107099;28;20281;-51
2023/06/25 08:06:09;;;;;;;;;;;24.00;78.10;;;;;;5095378;28;19923;-52
2023/06/25 08:08:34;;;;;;;;;;;24.00;77.90;;;;;;5110322;28;20398;-53
2023/06/25 08:11:00;;;;;;;;;;;24.00;78.00;;;;;;5093789;28;19912;-55
2023/06/25 08:13:25;;;;;;;;;;;24.00;77.70;;;;;;5114520;28;19908;-54
2023/06/25 08:15:51;;;;;;;;;;;24.00;77.70;;;;;;5096630;28;20377;-52
2023/06/25 08:18:16;;;;;;;;;;;24.00;77.60;;;;;;5094784;28;19919;-52
2023/06/25 08:20:42;;;;;;;;;;;24.00;78.20;;;;;;5060306;28;19916;-52
2023/06/25 08:23:08;;;;;;;;;;;24.00;77.80;;;;;;5115088;28;19908;-49
2023/06/25 08:25:33;;;;;;;;;;;24.00;78.00;;;;;;5090840;28;20275;-49
2023/06/25 08:27:59;;;;;;;;;;;23.90;78.20;;;;;;5094272;28;19912;-50
2023/06/25 08:30:24;;;;;;;;;;;24.00;78.10;;;;;;5090943;28;19916;-53
2023/06/25 08:32:49;;;;;;;;;;;23.90;78.10;;;;;;5093342;28;19915;-53
2023/06/25 08:35:15;;;;;;;;;;;23.90;79.50;;;;;;5094147;28;19931;-51
2023/06/25 08:37:40;;;;;;;;;;;23.90;80.50;;;;;;5094371;28;19946;-50
2023/06/25 08:40:10;;;;;;;;;;;23.90;81.00;;;;;;5076058;28;19985;-50
2023/06/25 08:42:35;;;;;;;;;;;24.00;81.70;;;;;;5094327;28;19912;-54
2023/06/25 08:45:01;;;;;;;;;;;24.00;82.30;;;;;;5094315;28;19916;-52
2023/06/25 08:47:30;;;;;;;;;;;24.00;82.80;;;;;;5104605;28;19977;-54
2023/06/25 08:49:55;;;;;;;;;;;23.90;80.90;;;;;;5092865;28;19912;-54
2023/06/25 08:52:21;;;;;;;;;;;23.90;77.60;;;;;;5093948;28;19908;-56
2023/06/25 08:54:46;;;;;;;;;;;23.90;76.70;;;;;;5093696;28;19995;-50
2023/06/25 08:57:12;;;;;;;;;;;23.90;78.00;;;;;;5093542;28;19939;-54
2023/06/25 08:59:37;;;;;;;;;;;23.90;77.90;;;;;;5094848;28;19956;-52
2023/06/25 09:02:03;;;;;;;;;;;23.90;76.40;;;;;;5110079;28;19918;-52
2023/06/25 09:04:28;;;;;;;;;;;23.90;77.00;;;;;;5093542;28;19908;-54
2023/06/25 09:06:54;;;;;;;;;;;23.90;77.50;;;;;;5093921;28;19916;-53
2023/06/25 09:09:19;;;;;;;;;;;23.90;77.00;;;;;;5098543;28;19995;-51
2023/06/25 09:11:45;;;;;;;;;;;23.90;77.10;;;;;;5091444;28;19965;-49
2023/06/25 09:14:10;;;;;;;;;;;23.90;76.60;;;;;;5091925;28;19920;-49
2023/06/25 09:16:49;;;;;;;;;;;23.90;77.00;;;;;;5083971;28;20402;-49
2023/06/25 09:19:18;;;;;;;;;;;23.90;77.40;;;;;;5093495;28;19908;-53
2023/06/25 09:21:44;;;;;;;;;;;23.90;76.40;;;;;;5093429;28;19908;-61
2023/06/25 09:24:14;;;;;;;;;;;23.90;75.80;;;;;;5092149;28;19919;-52
2023/06/25 09:26:46;;;;;;;;;;;23.90;77.40;;;;;;5093251;28;19924;-52
2023/06/25 09:29:12;;;;;;;;;;;23.90;77.00;;;;;;5107540;28;19918;-50
2023/06/25 09:31:39;;;;;;;;;;;23.90;78.30;;;;;;5099845;28;19912;-51
2023/06/25 09:34:06;;;;;;;;;;;23.90;79.30;;;;;;5099804;28;19908;-51
2023/06/25 09:36:32;;;;;;;;;;;23.90;80.00;;;;;;5095365;28;20452;-52
2023/06/25 09:38:57;;;;;;;;;;;23.90;80.10;;;;;;5096236;28;19916;-50
2023/06/25 09:41:23;;;;;;;;;;;23.90;80.30;;;;;;5097421;28;20007;-51
2023/06/25 09:43:50;;;;;;;;;;;23.90;80.50;;;;;;5113196;28;20274;-49
2023/06/25 09:46:16;;;;;;;;;;;23.90;80.80;;;;;;5116166;28;20332;-49
2023/06/25 09:48:42;;;;;;;;;;;23.90;81.00;;;;;;5105343;28;19971;-53
2023/06/25 09:51:09;;;;;;;;;;;23.90;81.10;;;;;;5094742;28;19908;-52
2023/06/25 09:53:37;;;;;;;;;;;24.00;81.10;;;;;;5095921;28;19958;-51
2023/06/25 09:56:03;;;;;;;;;;;23.90;81.10;;;;;;5097218;28;19911;-50
2023/06/25 09:58:29;;;;;;;;;;;23.90;81.00;;;;;;5095943;28;19957;-51
2023/06/25 10:00:55;;;;;;;;;;;23.90;81.20;;;;;;5095084;28;20003;-50
2023/06/25 10:03:21;;;;;;;;;;;24.00;81.40;;;;;;5101508;28;19920;-51
2023/06/25 10:05:47;;;;;;;;;;;24.00;81.80;;;;;;5086842;28;19931;-48
2023/06/25 10:08:13;;;;;;;;;;;24.00;81.70;;;;;;5078460;28;19908;-49
2023/06/25 10:10:38;;;;;;;;;;;24.00;82.00;;;;;;5096554;28;19958;-50
2023/06/25 10:13:05;;;;;;;;;;;24.00;82.50;;;;;;5096505;28;19914;-52
2023/06/25 10:15:31;;;;;;;;;;;24.00;82.50;;;;;;5096733;28;19931;-51
2023/06/25 10:17:58;;;;;;;;;;;24.00;82.70;;;;;;5106183;28;19954;-50
2023/06/25 10:20:27;;;;;;;;;;;24.00;82.90;;;;;;5096668;28;19947;-51
2023/06/25 10:23:13;;;;;;;;;;;24.00;82.80;;;;;;5096954;28;19915;-51
2023/06/25 10:25:40;;;;;;;;;;;24.00;83.20;;;;;;5096908;28;19974;-49
2023/06/25 10:28:07;;;;;;;;;;;24.00;83.30;;;;;;5095253;28;20278;-51
2023/06/25 10:30:37;;;;;;;;;;;24.00;83.40;;;;;;5094476;28;19908;-50
2023/06/25 10:33:02;;;;;;;;;;;24.00;83.40;;;;;;5094413;28;20362;-52
2023/06/25 10:35:34;;;;;;;;;;;24.00;83.40;;;;;;5094284;28;19912;-47
2023/06/25 10:38:00;;;;;;;;;;;24.00;83.80;;;;;;5076401;28;19908;-49
2023/06/25 10:40:31;;;;;;;;;;;24.10;84.00;;;;;;5087535;28;19915;-52
2023/06/25 10:42:57;;;;;;;;;;;24.10;84.20;;;;;;5110408;28;19916;-48
2023/06/25 10:45:23;;;;;;;;;;;24.10;84.40;;;;;;5113621;28;19920;-47
2023/06/25 10:47:48;;;;;;;;;;;24.00;84.50;;;;;;5099809;28;19920;-52
2023/06/25 10:50:16;;;;;;;;;;;24.10;84.50;;;;;;5094438;28;19919;-51
2023/06/25 10:52:42;;;;;;;;;;;24.00;84.90;;;;;;5095957;28;19915;-48
2023/06/25 10:55:07;;;;;;;;;;;24.10;85.30;;;;;;5099129;28;20002;-50
2023/06/25 10:57:33;;;;;;;;;;;24.10;85.30;;;;;;5113760;28;19965;-48
2023/06/25 10:59:58;;;;;;;;;;;24.10;83.60;;;;;;5114208;28;19961;-49
2023/06/25 11:02:25;;;;;;;;;;;24.10;83.10;;;;;;5094486;28;19935;-48
2023/06/25 11:04:56;;;;;;;;;;;24.10;83.30;;;;;;5094655;28;19924;-51
2023/06/25 11:07:23;;;;;;;;;;;24.10;83.50;;;;;;5093385;28;19912;-48
2023/06/25 11:09:54;;;;;;;;;;;24.10;83.50;;;;;;5096910;28;19912;-53
2023/06/25 11:12:19;;;;;;;;;;;24.10;83.50;;;;;;5092988;28;19920;-46
2023/06/25 11:14:45;;;;;;;;;;;24.10;83.70;;;;;;5105489;28;19912;-51
2023/06/25 11:17:13;;;;;;;;;;;24.10;83.80;;;;;;5115370;28;19914;-48
2023/06/25 11:19:39;;;;;;;;;;;24.10;84.00;;;;;;5098189;28;19912;-50
2023/06/25 11:22:06;;;;;;;;;;;24.10;84.10;;;;;;5094521;28;20370;-47
2023/06/25 11:24:38;;;;;;;;;;;24.10;84.20;;;;;;5095334;28;19915;-50
2023/06/25 11:27:04;;;;;;;;;;;24.10;84.10;;;;;;5091909;28;19924;-51
2023/06/25 11:29:36;;;;;;;;;;;24.10;84.10;;;;;;5095126;28;19909;-47
2023/06/25 11:32:05;;;;;;;;;;;24.10;84.60;;;;;;5096303;28;19947;-50
2023/06/25 11:34:31;;;;;;;;;;;24.10;84.80;;;;;;5075218;28;19927;-51
2023/06/25 11:36:56;;;;;;;;;;;24.10;84.60;;;;;;5057202;28;20467;-48
2023/06/25 11:39:22;;;;;;;;;;;24.10;84.70;;;;;;5084857;28;19904;-49
2023/06/25 11:41:47;;;;;;;;;;;24.10;84.60;;;;;;5113014;28;20300;-50
2023/06/25 11:44:20;;;;;;;;;;;24.10;85.00;;;;;;5115019;28;19910;-51
2023/06/25 11:46:49;;;;;;;;;;;24.10;84.80;;;;;;5114669;28;20320;-52
2023/06/25 11:49:15;;;;;;;;;;;24.10;84.80;;;;;;5115255;28;19904;-50
2023/06/25 11:51:42;;;;;;;;;;;24.10;85.20;;;;;;5114748;28;20293;-49
2023/06/25 11:54:08;;;;;;;;;;;24.10;85.50;;;;;;5115402;28;20358;-49
2023/06/25 11:56:33;;;;;;;;;;;24.10;85.70;;;;;;5114943;28;19911;-48
2023/06/25 11:58:59;;;;;;;;;;;24.10;85.70;;;;;;5115645;28;19904;-49
2023/06/25 12:01:24;;;;;;;;;;;24.10;85.40;;;;;;5096944;28;19952;-53
2023/06/25 12:03:50;;;;;;;;;;;24.10;85.30;;;;;;5114754;28;20059;-49
2023/06/25 12:06:15;;;;;;;;;;;24.10;86.00;;;;;;5115095;28;19908;-49
2023/06/25 12:08:41;;;;;;;;;;;24.10;86.40;;;;;;5115057;28;19908;-48
2023/06/25 12:11:06;;;;;;;;;;;24.10;86.10;;;;;;5115216;28;19958;-47
2023/06/25 12:13:32;;;;;;;;;;;24.10;85.70;;;;;;5114793;28;20342;-48
2023/06/25 12:15:57;;;;;;;;;;;24.10;85.60;;;;;;5114944;28;19983;-51
2023/06/25 12:18:23;;;;;;;;;;;24.10;85.50;;;;;;5096759;28;19919;-49
2023/06/25 12:20:48;;;;;;;;;;;24.10;85.50;;;;;;5114680;28;20361;-47
2023/06/25 12:23:14;;;;;;;;;;;24.10;85.40;;;;;;5115123;28;19903;-49
2023/06/25 12:25:39;;;;;;;;;;;24.10;85.50;;;;;;5114358;28;20009;-49
2023/06/25 12:28:05;;;;;;;;;;;24.10;85.60;;;;;;5114659;28;19995;-51
2023/06/25 12:30:30;;;;;;;;;;;24.10;85.70;;;;;;5114566;28;20249;-48
2023/06/25 12:32:56;;;;;;;;;;;24.10;85.60;;;;;;5114434;28;20384;-49
2023/06/25 12:35:22;;;;;;;;;;;24.10;85.60;;;;;;5096492;28;20364;-52
2023/06/25 12:37:48;;;;;;;;;;;24.10;85.60;;;;;;5114414;28;19908;-51
2023/06/25 12:40:13;;;;;;;;;;;24.10;85.90;;;;;;5114314;28;20338;-51
2023/06/25 12:42:39;;;;;;;;;;;24.10;85.90;;;;;;5115081;28;19915;-50
2023/06/25 12:45:05;;;;;;;;;;;24.10;85.90;;;;;;5114423;28;20310;-47
2023/06/25 12:47:31;;;;;;;;;;;24.10;85.60;;;;;;5114110;28;19970;-49
2023/06/25 12:49:56;;;;;;;;;;;24.10;85.60;;;;;;5114165;28;19908;-48
2023/06/25 12:52:22;;;;;;;;;;;24.10;85.60;;;;;;5114592;28;19951;-50
2023/06/25 12:54:47;;;;;;;;;;;24.10;85.70;;;;;;5096192;28;19915;-51
2023/06/25 12:57:13;;;;;;;;;;;24.10;85.60;;;;;;5113812;28;20348;-51
2023/06/25 12:59:38;;;;;;;;;;;24.10;85.60;;;;;;5114301;28;19907;-50
2023/06/25 13:02:04;;;;;;;;;;;24.10;85.60;;;;;;5114435;28;20322;-51
2023/06/25 13:04:30;;;;;;;;;;;24.10;85.80;;;;;;5114339;28;19954;-49
2023/06/25 13:06:55;;;;;;;;;;;24.10;86.10;;;;;;5115396;28;19949;-53
2023/06/25 13:09:21;;;;;;;;;;;24.10;86.60;;;;;;5100344;28;19911;-53
2023/06/25 13:11:46;;;;;;;;;;;24.10;86.30;;;;;;5100306;28;20371;-52
2023/06/25 13:14:12;;;;;;;;;;;24.10;86.00;;;;;;5118167;28;19959;-51
2023/06/25 13:16:37;;;;;;;;;;;24.10;86.10;;;;;;5100039;28;20060;-48
2023/06/25 13:19:03;;;;;;;;;;;24.10;86.20;;;;;;5118470;28;19951;-50
2023/06/25 13:21:28;;;;;;;;;;;24.10;86.20;;;;;;5100136;28;19995;-50
2023/06/25 13:23:54;;;;;;;;;;;24.10;86.10;;;;;;5118086;28;20366;-50
2023/06/25 13:26:19;;;;;;;;;;;24.10;86.50;;;;;;5099781;28;19918;-53
2023/06/25 13:28:45;;;;;;;;;;;24.10;86.20;;;;;;5117895;28;19907;-47
2023/06/25 13:31:10;;;;;;;;;;;24.10;86.10;;;;;;5118508;28;19954;-47
2023/06/25 13:33:35;;;;;;;;;;;24.10;86.10;;;;;;5118222;28;20291;-50
2023/06/25 13:36:01;;;;;;;;;;;24.10;86.30;;;;;;5117757;28;19956;-51
2023/06/25 13:38:26;;;;;;;;;;;24.10;86.40;;;;;;5099838;28;20019;-50
2023/06/25 13:40:52;;;;;;;;;;;24.10;86.60;;;;;;5099654;28;19911;-50
2023/06/25 13:43:17;;;;;;;;;;;24.10;86.80;;;;;;5117853;28;19907;-52
2023/06/25 13:45:43;;;;;;;;;;;24.10;86.30;;;;;;5117875;28;19911;-51
2023/06/25 13:48:09;;;;;;;;;;;24.10;86.20;;;;;;5117567;28;19916;-50
2023/06/25 13:50:34;;;;;;;;;;;24.10;86.80;;;;;;5117817;28;20010;-51
2023/06/25 13:53:00;;;;;;;;;;;24.10;86.40;;;;;;5117825;28;20318;-50
2023/06/25 13:55:25;;;;;;;;;;;24.10;86.10;;;;;;5118169;28;20269;-48
2023/06/25 13:57:51;;;;;;;;;;;24.10;86.40;;;;;;5117629;28;19910;-50
2023/06/25 14:00:16;;;;;;;;;;;24.10;86.30;;;;;;5117407;28;19903;-47
2023/06/25 14:02:44;;;;;;;;;;;24.10;86.30;;;;;;5117578;28;19904;-49
2023/06/25 14:05:10;;;;;;;;;;;24.10;86.70;;;;;;5117471;28;19965;-53
2023/06/25 14:07:35;;;;;;;;;;;24.10;87.00;;;;;;5117510;28;20334;-48